Time;durP1;ratioP1;P1;durP2;ratioP2;P2;SDS_P1;SDS_P2;PMS_P1;PMS_P2;Temp;Humidity;BMP_temperature;BMP_pressure;BME280_temperature;BME280_humidity;BME280_pressure;Samples;Min_cycle;Max_cycle;Signal;HPM_P1;HPM_P2
2022/01/11 00:00:37;;;;;;;88.63;29.73;;;;;;;-0.94;100.00;102868.50;6404994;23;20005;-71
2022/01/11 00:03:09;;;;;;;109.20;29.23;;;;;;;-0.95;100.00;102879.53;6404256;23;20021;-70
2022/01/11 00:05:58;;;;;;;90.60;28.03;;;;;;;-0.98;100.00;102877.66;6403746;23;20013;-67
2022/01/11 00:08:41;;;;;;;86.05;28.02;;;;;;;-0.96;100.00;102882.88;6404541;23;20739;-68
2022/01/11 00:11:12;;;;;;;86.10;29.58;;;;;;;-0.97;100.00;102886.22;6377909;23;20005;-68
2022/01/11 00:13:44;;;;;;;95.93;28.47;;;;;;;-0.96;100.00;102898.25;6403616;23;20079;-67
2022/01/11 00:16:15;;;;;;;82.67;28.37;;;;;;;-0.94;100.00;102904.34;6403883;23;20006;-73
2022/01/11 00:18:47;;;;;;;87.60;29.90;;;;;;;-0.93;100.00;102903.56;6403925;23;20492;-67
2022/01/11 00:21:18;;;;;;;83.47;30.33;;;;;;;-0.88;100.00;102903.91;6404408;23;20072;-69
2022/01/11 00:26:39;;;;;;;105.85;30.00;;;;;;;-0.88;100.00;102898.78;6403711;23;20037;-67
2022/01/11 00:29:11;;;;;;;95.50;29.47;;;;;;;-0.85;100.00;102899.88;6403716;23;20041;-70
2022/01/11 00:31:45;;;;;;;65.50;29.17;;;;;;;-0.87;100.00;102897.97;6403787;23;20032;-70
2022/01/11 00:34:19;;;;;;;62.92;29.73;;;;;;;-0.86;100.00;102897.19;6403505;23;20077;-69
2022/01/11 00:36:50;;;;;;;69.05;31.23;;;;;;;-0.85;100.00;102906.63;6403489;23;20133;-70
2022/01/11 00:39:21;;;;;;;55.90;29.60;;;;;;;-0.84;100.00;102906.75;6403901;23;20348;-67
2022/01/11 00:41:53;;;;;;;60.10;29.30;;;;;;;-0.84;100.00;102898.19;6403490;23;20028;-68
2022/01/11 00:44:24;;;;;;;63.07;28.90;;;;;;;-0.81;100.00;102898.38;6403257;23;20384;-70
2022/01/11 00:46:56;;;;;;;83.00;32.50;;;;;;;-0.83;100.00;102888.03;6403925;23;20012;-73
2022/01/11 00:49:27;;;;;;;60.77;32.67;;;;;;;-0.81;100.00;102885.59;6403020;23;20012;-68
2022/01/11 00:51:59;;;;;;;57.27;30.40;;;;;;;-0.74;100.00;102890.34;6376935;23;20261;-67
2022/01/11 00:54:31;;;;;;;67.03;32.20;;;;;;;-0.75;100.00;102893.69;6403964;23;20343;-67
2022/01/11 00:57:03;;;;;;;60.77;30.73;;;;;;;-0.73;100.00;102893.00;6404275;23;20013;-68
2022/01/11 00:59:34;;;;;;;64.60;31.30;;;;;;;-0.74;100.00;102891.22;6403379;23;20083;-67
2022/01/11 01:02:06;;;;;;;60.80;29.80;;;;;;;-0.74;100.00;102887.78;6403073;23;20013;-68
2022/01/11 01:04:37;;;;;;;61.20;30.37;;;;;;;-0.73;100.00;102893.00;6401605;23;20436;-67
2022/01/11 01:07:08;;;;;;;56.60;28.80;;;;;;;-0.73;100.00;102892.09;6403910;23;20076;-67
2022/01/11 01:09:52;;;;;;;60.87;31.53;;;;;;;-0.76;100.00;102895.38;6402113;23;20009;-71
2022/01/11 01:12:26;;;;;;;64.22;31.05;;;;;;;-0.73;100.00;102907.47;6404034;23;20152;-67
2022/01/11 01:14:58;;;;;;;60.10;31.42;;;;;;;-0.76;100.00;102892.81;6403637;23;20006;-72
2022/01/11 01:17:29;;;;;;;56.40;30.33;;;;;;;-0.71;100.00;102894.78;6404224;23;20198;-69
2022/01/11 01:20:01;;;;;;;65.10;30.67;;;;;;;-0.70;100.00;102902.56;6403584;23;20001;-69
2022/01/11 01:22:32;;;;;;;67.00;33.10;;;;;;;-0.71;100.00;102905.91;6403742;23;20044;-67
2022/01/11 01:25:05;;;;;;;65.73;33.60;;;;;;;-0.71;100.00;102905.03;6403514;23;20307;-68
2022/01/11 01:27:37;;;;;;;64.63;31.55;;;;;;;-0.76;100.00;102908.19;6403811;23;20068;-69
2022/01/11 01:30:09;;;;;;;62.13;32.40;;;;;;;-0.68;100.00;102897.53;6403021;23;20009;-66
2022/01/11 01:32:40;;;;;;;65.72;32.20;;;;;;;-0.70;100.00;102894.00;6403127;23;20009;-72
2022/01/11 01:35:12;;;;;;;65.67;32.63;;;;;;;-0.72;100.00;102899.03;6403057;23;20422;-68
2022/01/11 01:37:44;;;;;;;69.90;35.93;;;;;;;-0.71;100.00;102908.47;6402521;23;20018;-72
2022/01/11 01:40:21;;;;;;;61.93;31.93;;;;;;;-0.67;100.00;102907.03;6402592;23;20253;-71
2022/01/11 01:42:53;;;;;;;67.70;33.90;;;;;;;-0.73;100.00;102894.66;6403063;23;20012;-71
2022/01/11 01:45:24;;;;;;;64.77;32.43;;;;;;;-0.69;100.00;102895.75;6402567;23;20466;-68
2022/01/11 01:47:58;;;;;;;63.83;32.23;;;;;;;-0.70;100.00;102900.00;6377711;23;20013;-73
2022/01/11 01:50:30;;;;;;;58.97;32.15;;;;;;;-0.69;100.00;102898.31;6403007;23;20081;-68
2022/01/11 01:53:04;;;;;;;67.95;32.42;;;;;;;-0.70;100.00;102902.56;6376914;23;20060;-67
2022/01/11 01:55:36;;;;;;;64.95;31.27;;;;;;;-0.68;100.00;102901.00;6403165;23;20206;-72
2022/01/11 01:58:07;;;;;;;58.53;29.70;;;;;;;-0.70;100.00;102905.13;6403032;23;20092;-73
2022/01/11 02:00:46;;;;;;;59.03;30.10;;;;;;;-0.66;100.00;102904.56;6402748;23;20005;-69
2022/01/11 02:03:25;;;;;;;58.58;31.35;;;;;;;-0.70;100.00;102909.38;6402940;23;20012;-71
2022/01/11 02:05:57;;;;;;;62.08;30.33;;;;;;;-0.70;100.00;102912.81;6402540;23;20020;-71
2022/01/11 02:08:29;;;;;;;57.63;29.45;;;;;;;-0.70;100.00;102915.38;6403138;23;20005;-70
2022/01/11 02:11:01;;;;;;;54.10;28.70;;;;;;;-0.74;100.00;102915.97;6402885;23;20017;-71
2022/01/11 02:13:32;;;;;;;56.37;28.77;;;;;;;-0.77;100.00;102921.75;6402719;23;20010;-69
2022/01/11 02:16:04;;;;;;;61.20;32.17;;;;;;;-0.81;100.00;102917.19;6402250;23;20107;-67
2022/01/11 02:18:36;;;;;;;58.97;31.17;;;;;;;-0.84;100.00;102916.97;6402312;23;20006;-68
2022/01/11 02:21:07;;;;;;;64.80;30.77;;;;;;;-0.82;100.00;102920.56;6402736;23;20411;-71
2022/01/11 02:23:39;;;;;;;56.10;28.83;;;;;;;-0.83;100.00;102933.25;6402563;23;20013;-70
2022/01/11 02:26:11;;;;;;;59.93;30.60;;;;;;;-0.87;100.00;102941.50;6402377;23;20021;-67
2022/01/11 02:28:42;;;;;;;64.10;29.63;;;;;;;-0.88;100.00;102940.63;6402604;23;20009;-69
2022/01/11 02:31:14;;;;;;;63.87;31.37;;;;;;;-0.85;100.00;102932.25;6402288;23;20010;-68
2022/01/11 02:33:49;;;;;;;62.40;31.27;;;;;;;-0.86;100.00;102945.84;6402690;23;20040;-68
2022/01/11 02:36:30;;;;;;;58.45;30.63;;;;;;;-0.81;100.00;102942.81;6402373;23;20015;-67
2022/01/11 02:39:03;;;;;;;58.60;30.60;;;;;;;-0.83;100.00;102935.81;6402735;23;20005;-71
2022/01/11 02:41:34;;;;;;;;;;;;;;;-0.78;100.00;102940.47;6402193;23;20041;-73
2022/01/11 02:44:05;;;;;;;56.42;29.35;;;;;;;-0.84;100.00;102947.72;6402675;23;19924;-68
2022/01/11 02:46:37;;;;;;;58.87;29.57;;;;;;;-0.85;100.00;102957.84;6399665;23;20013;-69
2022/01/11 02:49:08;;;;;;;64.67;31.40;;;;;;;-0.85;100.00;102950.16;6402217;23;20040;-68
2022/01/11 02:51:39;;;;;;;61.93;30.67;;;;;;;-0.85;100.00;102956.19;6402196;23;20605;-67
2022/01/11 02:54:11;;;;;;;57.43;30.07;;;;;;;-0.84;100.00;102963.06;6402148;23;20016;-69
2022/01/11 02:56:42;;;;;;;55.67;29.83;;;;;;;-0.84;100.00;102957.97;6402581;23;20009;-75
2022/01/11 02:59:14;;;;;;;64.20;31.83;;;;;;;-0.88;100.00;102965.34;6402240;23;20474;-68
2022/01/11 03:01:45;;;;;;;60.70;31.67;;;;;;;-0.88;100.00;102970.47;6402055;23;20060;-68
2022/01/11 03:04:16;;;;;;;60.20;31.07;;;;;;;-0.88;100.00;102971.34;6402143;23;20012;-67
2022/01/11 03:06:48;;;;;;;59.07;29.77;;;;;;;-0.88;100.00;102963.66;6402000;23;20428;-68
2022/01/11 03:09:21;;;;;;;60.47;31.27;;;;;;;-0.88;100.00;102967.91;6402529;23;20029;-69
2022/01/11 03:11:52;;;;;;;58.05;29.35;;;;;;;-0.89;100.00;102963.56;6402398;23;20013;-70
2022/01/11 03:14:23;;;;;;;60.17;30.00;;;;;;;-0.96;100.00;102964.81;6401116;23;20006;-68
2022/01/11 03:16:55;;;;;;;59.57;30.67;;;;;;;-0.94;100.00;102969.22;6401393;23;20014;-70
2022/01/11 03:19:26;;;;;;;58.97;29.93;;;;;;;-0.98;100.00;102967.25;6402096;23;20100;-69
2022/01/11 03:21:58;;;;;;;60.57;30.17;;;;;;;-0.94;100.00;102968.34;6402962;23;20006;-69
2022/01/11 03:24:29;;;;;;;57.83;32.57;;;;;;;-0.95;100.00;102969.13;6402530;23;20009;-74
2022/01/11 03:27:01;;;;;;;60.70;31.27;;;;;;;-0.97;100.00;102961.34;6402766;23;20450;-70
2022/01/11 03:29:37;;;;;;;60.93;31.10;;;;;;;-0.99;100.00;102965.47;6402498;23;20044;-69
2022/01/11 03:32:09;;;;;;;57.15;30.83;;;;;;;-1.01;100.00;102964.50;6401996;23;20055;-68
2022/01/11 03:34:41;;;;;;;56.47;30.23;;;;;;;-0.99;100.00;102964.59;6402294;23;20939;-66
2022/01/11 03:37:18;;;;;;;57.80;30.35;;;;;;;-1.06;100.00;102962.38;6402717;23;20073;-70
2022/01/11 03:39:49;;;;;;;61.45;32.65;;;;;;;-1.07;100.00;102960.63;6402408;23;20005;-70
2022/01/11 03:42:21;;;;;;;59.43;30.63;;;;;;;-1.07;100.00;102952.94;6402262;23;20021;-72
2022/01/11 03:44:54;;;;;;;58.10;29.23;;;;;;;-1.08;100.00;102954.59;6402695;23;20006;-71
2022/01/11 03:47:25;;;;;;;;;;;;;;;-1.07;100.00;102956.38;6403124;23;20010;-69
2022/01/11 03:49:57;;;;;;;59.83;29.05;;;;;;;-1.12;100.00;102953.50;6402833;23;19916;-67
2022/01/11 03:52:28;;;;;;;58.47;30.47;;;;;;;-1.12;100.00;102956.03;6400017;23;20064;-69
2022/01/11 03:57:33;;;;;;;52.90;30.48;;;;;;;-1.15;100.00;102952.41;6412576;23;20463;-67
2022/01/11 04:00:11;;;;;;;54.83;30.45;;;;;;;-1.15;100.00;102954.97;6403161;23;20093;-68
2022/01/11 04:02:43;;;;;;;55.28;29.20;;;;;;;-1.13;100.00;102959.41;6401812;23;20009;-72
2022/01/11 04:05:15;;;;;;;56.22;30.67;;;;;;;-1.14;100.00;102965.31;6402588;23;20111;-71
2022/01/11 04:07:46;;;;;;;51.67;29.67;;;;;;;-1.19;100.00;102966.66;6402280;23;20005;-71
2022/01/11 04:10:17;;;;;;;52.60;29.87;;;;;;;-1.23;100.00;102971.44;6402516;23;20020;-67
2022/01/11 04:12:50;;;;;;;49.67;28.47;;;;;;;-1.22;100.00;102974.13;6402825;23;20008;-69
2022/01/11 04:15:21;;;;;;;;;;;;;;;-1.21;100.00;102973.31;6376032;23;20021;-67
2022/01/11 04:17:53;;;;;;;51.00;30.00;;;;;;;-1.23;100.00;102977.44;6401963;23;19909;-69
2022/01/11 04:20:24;;;;;;;60.20;32.00;;;;;;;-1.27;100.00;102972.91;6402430;23;20503;-70
2022/01/11 04:22:55;;;;;;;56.73;30.93;;;;;;;-1.27;100.00;102978.03;6402563;23;20454;-70
2022/01/11 04:25:27;;;;;;;55.20;30.03;;;;;;;-1.32;100.00;102961.44;6404510;23;20010;-69
2022/01/11 04:27:58;;;;;;;58.83;30.17;;;;;;;-1.29;100.00;102966.75;6404814;23;20009;-68
2022/01/11 04:30:30;;;;;;;57.33;30.83;;;;;;;-1.30;100.00;102975.25;6403627;23;20005;-69
2022/01/11 04:33:01;;;;;;;58.27;31.30;;;;;;;-1.36;100.00;102985.03;6403737;23;20060;-68
2022/01/11 04:35:33;;;;;;;61.10;31.10;;;;;;;-1.34;100.00;102991.16;6404394;23;20006;-69
2022/01/11 04:38:05;;;;;;;57.60;30.47;;;;;;;-1.34;100.00;102989.47;6404380;23;20010;-68
2022/01/11 04:40:36;;;;;;;51.57;30.13;;;;;;;-1.33;100.00;102986.13;6403140;23;20021;-68
2022/01/11 04:43:08;;;;;;;50.80;29.83;;;;;;;-1.34;100.00;102991.16;6403669;23;20012;-69
2022/01/11 04:45:39;;;;;;;56.77;30.23;;;;;;;-1.37;100.00;102994.38;6403486;23;20064;-68
2022/01/11 04:48:11;;;;;;;55.67;29.80;;;;;;;-1.40;100.00;103000.94;6404103;23;20554;-67
2022/01/11 04:50:43;;;;;;;52.47;28.93;;;;;;;-1.45;100.00;102992.03;6404481;23;20013;-69
2022/01/11 04:53:15;;;;;;;57.55;30.92;;;;;;;-1.51;100.00;102985.72;6404019;23;20084;-72
2022/01/11 04:55:46;;;;;;;58.57;32.23;;;;;;;-1.53;100.00;102982.16;6403410;23;20044;-69
2022/01/11 04:58:18;;;;;;;61.33;33.43;;;;;;;-1.53;100.00;102981.25;6403629;23;20458;-67
2022/01/11 05:00:50;;;;;;;56.23;30.80;;;;;;;-1.59;100.00;102976.59;6377755;23;20029;-69
2022/01/11 05:03:21;;;;;;;57.47;31.73;;;;;;;-1.61;100.00;102980.72;6404489;23;20422;-68
2022/01/11 05:05:52;;;;;;;61.73;33.17;;;;;;;-1.64;100.00;102975.38;6403822;23;20344;-75
2022/01/11 05:08:24;;;;;;;64.30;32.60;;;;;;;-1.68;100.00;102974.25;6404164;23;20009;-67
2022/01/11 05:10:55;;;;;;;59.50;33.03;;;;;;;-1.70;100.00;102980.06;6403842;23;20070;-69
2022/01/11 05:13:27;;;;;;;62.23;32.50;;;;;;;-1.72;100.00;102976.50;6403877;23;20069;-68
2022/01/11 05:15:59;;;;;;;68.87;33.07;;;;;;;-1.76;100.00;102972.81;6403646;23;20036;-69
2022/01/11 05:18:31;;;;;;;;;;;;;;;-1.77;100.00;102973.59;6404060;23;20072;-69
2022/01/11 05:21:03;;;;;;;70.68;34.50;;;;;;;-1.81;100.00;102968.16;6403804;23;19909;-70
2022/01/11 05:23:34;;;;;;;73.18;37.13;;;;;;;-1.87;100.00;102969.50;6403808;23;20010;-70
2022/01/11 05:26:06;;;;;;;66.00;36.80;;;;;;;-1.87;100.00;102973.69;6403092;23;20037;-70
2022/01/11 05:28:37;;;;;;;73.83;35.57;;;;;;;-1.90;100.00;102964.16;6402960;23;20308;-69
2022/01/11 05:31:09;;;;;;;70.73;35.40;;;;;;;-1.94;100.00;102964.69;6404074;23;20072;-69
2022/01/11 05:33:40;;;;;;;70.23;34.27;;;;;;;-1.98;100.00;102955.03;6404091;23;20040;-74
2022/01/11 05:36:11;;;;;;;65.97;34.90;;;;;;;-2.03;100.00;102957.25;6403999;23;20020;-69
2022/01/11 05:38:43;;;;;;;74.37;36.27;;;;;;;-2.02;100.00;102968.34;6404193;23;20585;-69
2022/01/11 05:41:14;;;;;;;78.53;36.80;;;;;;;-2.05;100.00;102968.13;6404075;23;20013;-70
2022/01/11 05:43:46;;;;;;;72.27;35.70;;;;;;;-2.06;100.00;102966.34;6378231;23;20104;-69
2022/01/11 05:46:18;;;;;;;75.43;37.42;;;;;;;-2.08;100.00;102971.34;6403880;23;20005;-70
2022/01/11 05:48:49;;;;;;;76.70;38.60;;;;;;;-2.11;100.00;102973.69;6404063;23;20332;-68
2022/01/11 05:51:20;;;;;;;69.50;35.77;;;;;;;-2.10;100.00;102982.25;6403848;23;20516;-74
2022/01/11 05:53:52;;;;;;;70.90;35.57;;;;;;;-2.14;100.00;102975.09;6404291;23;20036;-69
2022/01/11 05:56:24;;;;;;;79.00;37.10;;;;;;;-2.10;100.00;102972.00;6402808;23;20009;-68
2022/01/11 05:58:56;;;;;;;72.60;34.53;;;;;;;-2.10;100.00;102977.13;6403059;23;20040;-70
2022/01/11 06:01:27;;;;;;;70.70;36.20;;;;;;;-2.14;100.00;102987.88;6402915;23;20229;-71
2022/01/11 06:03:58;;;;;;;68.10;33.83;;;;;;;-2.15;100.00;102989.56;6403201;23;20024;-70
2022/01/11 06:06:30;;;;;;;73.77;35.87;;;;;;;-2.14;100.00;102988.78;6405596;23;20418;-70
2022/01/11 06:09:03;;;;;;;71.03;35.30;;;;;;;-2.14;100.00;103008.31;6404141;23;20040;-70
2022/01/11 06:11:34;;;;;;;67.90;34.72;;;;;;;-2.12;100.00;103007.69;6403660;23;20005;-69
2022/01/11 06:14:06;;;;;;;76.10;35.33;;;;;;;-2.11;100.00;103008.56;6401564;23;20447;-73
2022/01/11 06:16:37;;;;;;;66.20;34.10;;;;;;;-2.07;100.00;103010.56;6403429;23;20009;-73
2022/01/11 06:19:08;;;;;;;64.53;33.00;;;;;;;-2.08;100.00;103019.88;6376572;23;20009;-74
2022/01/11 06:21:40;;;;;;;65.30;30.67;;;;;;;-2.12;100.00;103023.00;6403485;23;20116;-71
2022/01/11 06:24:11;;;;;;;60.57;31.47;;;;;;;-2.13;100.00;103028.00;6403001;23;20015;-73
2022/01/11 06:26:43;;;;;;;54.93;30.50;;;;;;;-2.15;100.00;103027.00;6402093;23;20005;-69
2022/01/11 06:29:14;;;;;;;57.60;30.73;;;;;;;-2.15;100.00;103032.13;6377632;23;20013;-73
2022/01/11 06:31:45;;;;;;;62.83;30.93;;;;;;;-2.14;100.00;103039.00;6403607;23;20068;-69
2022/01/11 06:34:17;;;;;;;60.70;31.53;;;;;;;-2.17;100.00;103033.63;6402588;23;20009;-71
2022/01/11 06:36:48;;;;;;;56.83;30.00;;;;;;;-2.21;100.00;103038.56;6402866;23;20586;-74
2022/01/11 06:39:20;;;;;;;56.57;29.93;;;;;;;-2.23;100.00;103040.06;6402775;23;20481;-68
2022/01/11 06:41:51;;;;;;;59.30;30.93;;;;;;;-2.26;100.00;103034.72;6402971;23;20013;-78
2022/01/11 06:44:22;;;;;;;65.40;32.17;;;;;;;-2.29;100.00;103039.59;6402912;23;20075;-73
2022/01/11 06:46:54;;;;;;;55.90;29.87;;;;;;;-2.28;100.00;103043.06;6402225;23;20077;-74
2022/01/11 06:49:25;;;;;;;61.73;32.50;;;;;;;-2.30;100.00;103040.41;6402383;23;20008;-73
2022/01/11 06:51:57;;;;;;;62.17;31.27;;;;;;;-2.32;100.00;103054.69;6401197;23;20352;-70
2022/01/11 06:54:28;;;;;;;60.97;30.43;;;;;;;-2.34;100.00;103051.16;6376323;23;20040;-73
2022/01/11 06:56:59;;;;;;;67.80;32.77;;;;;;;-2.31;100.00;103058.16;6402767;23;20012;-68
2022/01/11 06:59:31;;;;;;;63.37;33.43;;;;;;;-2.32;100.00;103052.16;6402542;23;20008;-78
2022/01/11 07:02:06;;;;;;;68.43;33.30;;;;;;;-2.32;100.00;103054.69;6402482;23;20008;-71
2022/01/11 07:04:38;;;;;;;71.82;34.95;;;;;;;-2.33;100.00;103054.63;6402802;23;20392;-68
2022/01/11 07:07:09;;;;;;;66.50;33.30;;;;;;;-2.34;100.00;103051.16;6403018;23;20076;-67
2022/01/11 07:09:41;;;;;;;67.07;31.93;;;;;;;-2.33;100.00;103065.72;6402052;23;20005;-67
2022/01/11 07:12:12;;;;;;;74.23;35.80;;;;;;;-2.33;100.00;103057.16;6403553;23;20057;-70
2022/01/11 07:14:44;;;;;;;69.70;33.70;;;;;;;-2.33;100.00;103059.72;6401987;23;20020;-71
2022/01/11 07:17:15;;;;;;;69.30;33.50;;;;;;;-2.31;100.00;103070.94;6402608;23;20005;-73
2022/01/11 07:19:47;;;;;;;68.10;34.30;;;;;;;-2.34;100.00;103065.59;6403144;23;20009;-70
2022/01/11 07:22:18;;;;;;;62.83;32.30;;;;;;;-2.36;100.00;103062.03;6401305;23;20002;-67
2022/01/11 07:24:49;;;;;;;67.53;34.90;;;;;;;-2.35;100.00;103076.56;6402327;23;20084;-68
2022/01/11 07:27:21;;;;;;;66.43;33.33;;;;;;;-2.35;100.00;103074.00;6376308;23;20025;-69
2022/01/11 07:29:52;;;;;;;70.90;35.53;;;;;;;-2.34;100.00;103078.38;6402758;23;20001;-68
2022/01/11 07:32:25;;;;;;;67.05;34.55;;;;;;;-2.31;100.00;103089.69;6376666;23;20025;-67
2022/01/11 07:34:58;;;;;;;59.10;32.07;;;;;;;-2.34;100.00;103092.03;6400668;23;20017;-68
2022/01/11 07:37:29;;;;;;;64.95;33.47;;;;;;;-2.32;100.00;103103.25;6400706;23;20328;-73
2022/01/11 07:40:00;;;;;;;65.93;34.03;;;;;;;-2.33;100.00;103104.03;6402583;23;20010;-69
2022/01/11 07:42:32;;;;;;;64.43;34.33;;;;;;;-2.31;100.00;103104.16;6402098;23;20020;-69
2022/01/11 07:45:04;;;;;;;67.10;34.63;;;;;;;-2.28;100.00;103097.59;6402037;23;20017;-69
2022/01/11 07:47:35;;;;;;;57.38;32.55;;;;;;;-2.28;100.00;103101.84;6400673;23;20006;-70
2022/01/11 07:50:08;;;;;;;62.33;31.40;;;;;;;-2.26;100.00;103108.81;6401577;23;20063;-71
2022/01/11 07:52:39;;;;;;;65.22;32.17;;;;;;;-2.23;100.00;103106.50;6375006;23;20420;-68
2022/01/11 07:55:11;;;;;;;63.70;31.90;;;;;;;-2.19;100.00;103099.97;6402452;23;20005;-70
2022/01/11 07:57:42;;;;;;;59.93;31.50;;;;;;;-2.16;100.00;103104.44;6403226;23;20016;-69
2022/01/11 08:00:14;;;;;;;62.37;30.67;;;;;;;-2.10;100.00;103104.91;6404662;23;20009;-68
2022/01/11 08:02:46;;;;;;;50.17;30.33;;;;;;;-2.04;100.00;103101.16;6402794;23;20438;-68
2022/01/11 08:05:18;;;;;;;57.17;29.67;;;;;;;-2.01;100.00;103103.06;6404818;23;20375;-66
2022/01/11 08:07:50;;;;;;;51.55;30.00;;;;;;;-1.94;100.00;103099.28;6402055;23;20009;-66
2022/01/11 08:10:24;;;;;;;60.13;29.63;;;;;;;-1.90;100.00;103101.28;6402317;23;20072;-66
2022/01/11 08:13:05;;;;;;;;;;;;;;;;;;;;;
2022/01/11 08:15:37;;;;;;;51.65;27.35;;;;;;;-1.79;100.00;103107.22;6328098;23;20498;-67
2022/01/11 08:18:09;;;;;;;50.03;28.63;;;;;;;-1.74;100.00;103105.88;6403603;23;20085;-73
2022/01/11 08:20:40;;;;;;;50.77;27.80;;;;;;;-1.63;100.00;103105.03;6404246;23;20034;-69
2022/01/11 08:23:11;;;;;;;50.67;27.30;;;;;;;-1.49;100.00;103106.06;6377679;23;20028;-70
2022/01/11 08:25:43;;;;;;;50.27;24.93;;;;;;;-1.34;100.00;103114.84;6376732;23;20020;-68
2022/01/11 08:28:14;;;;;;;42.87;25.97;;;;;;;-1.22;100.00;103120.00;6403977;23;20006;-68
2022/01/11 08:30:46;;;;;;;48.43;27.40;;;;;;;-1.03;100.00;103114.53;6403910;23;20009;-70
2022/01/11 08:33:18;;;;;;;46.97;23.53;;;;;;;-0.93;99.86;103108.41;6377090;23;20009;-70
2022/01/11 08:35:50;;;;;;;42.90;24.87;;;;;;;-0.80;99.06;103107.63;6402146;23;20017;-72
2022/01/11 08:38:22;;;;;;;43.15;24.85;;;;;;;-0.67;99.00;103105.13;6404627;23;20013;-68
2022/01/11 08:40:53;;;;;;;38.40;23.53;;;;;;;-0.60;97.12;103101.31;6378655;23;20296;-70
2022/01/11 08:43:25;;;;;;;36.23;23.00;;;;;;;-0.52;96.27;103115.56;6377464;23;20022;-68
2022/01/11 08:45:57;;;;;;;43.13;21.67;;;;;;;-0.45;96.36;103110.09;6402370;23;20040;-68
2022/01/11 08:48:29;;;;;;;41.50;23.13;;;;;;;-0.34;96.09;103113.38;6403554;23;20010;-71
2022/01/11 08:51:03;;;;;;;42.88;21.95;;;;;;;-0.18;95.25;103105.06;6401337;23;20140;-72
2022/01/11 08:53:34;;;;;;;34.30;20.05;;;;;;;-0.02;94.18;103112.13;6377391;23;20342;-67
2022/01/11 08:56:06;;;;;;;42.97;22.33;;;;;;;0.16;93.62;103109.94;6403029;23;20013;-69
2022/01/11 08:58:37;;;;;;;34.33;20.17;;;;;;;0.34;93.53;103110.28;6378689;23;20013;-69
2022/01/11 09:01:09;;;;;;;32.90;20.37;;;;;;;0.45;91.35;103100.72;6402741;23;20092;-69
2022/01/11 09:03:40;;;;;;;31.70;20.17;;;;;;;0.52;90.73;103108.03;6402459;23;20041;-71
2022/01/11 09:06:12;;;;;;;36.57;19.67;;;;;;;0.61;90.98;103126.63;6403634;23;20009;-67
2022/01/11 09:08:46;;;;;;;32.17;19.17;;;;;;;0.68;89.37;103126.22;6403755;23;20010;-72
2022/01/11 09:11:21;;;;;;;28.25;18.98;;;;;;;0.72;88.24;103130.78;6377457;23;20010;-67
2022/01/11 09:13:52;;;;;;;30.52;19.45;;;;;;;0.83;88.60;103131.47;6376950;23;20343;-70
2022/01/11 09:16:24;;;;;;;28.10;18.37;;;;;;;0.93;87.88;103130.38;6377498;23;20013;-73
2022/01/11 09:18:56;;;;;;;25.77;16.90;;;;;;;1.07;87.45;103128.69;6377846;23;20013;-73
2022/01/11 09:21:27;;;;;;;24.63;16.87;;;;;;;1.14;86.30;103138.56;6376978;23;20070;-68
2022/01/11 09:23:59;;;;;;;33.23;18.80;;;;;;;1.24;86.13;103138.38;6404343;23;20339;-67
2022/01/11 09:26:30;;;;;;;30.27;17.33;;;;;;;1.34;85.81;103132.13;6403926;23;20015;-73
2022/01/11 09:29:02;;;;;;;29.37;17.77;;;;;;;1.48;84.48;103142.38;6403191;23;20009;-67
2022/01/11 09:31:33;;;;;;;27.37;16.57;;;;;;;1.64;84.20;103137.38;6403864;23;20100;-79
2022/01/11 09:34:05;;;;;;;26.67;17.17;;;;;;;1.91;82.98;103139.88;6403728;23;20009;-69
2022/01/11 09:36:37;;;;;;;22.47;16.37;;;;;;;2.03;81.47;103139.72;6403804;23;20005;-69
2022/01/11 09:39:08;;;;;;;25.45;16.88;;;;;;;2.28;81.19;103142.09;6403052;23;20067;-67
2022/01/11 09:41:40;;;;;;;21.33;16.83;;;;;;;2.39;79.92;103145.31;6403227;23;20151;-67
2022/01/11 09:44:12;;;;;;;21.97;14.73;;;;;;;2.55;79.79;103150.53;6405523;23;20012;-71
2022/01/11 09:46:43;;;;;;;27.57;15.53;;;;;;;2.71;78.59;103148.06;6405558;23;20009;-67
2022/01/11 09:49:15;;;;;;;24.47;16.03;;;;;;;3.04;78.93;103142.16;6403637;23;20024;-67
2022/01/11 09:51:47;;;;;;;25.47;15.37;;;;;;;3.24;78.02;103149.31;6404177;23;20125;-66
2022/01/11 09:54:21;;;;;;;20.50;14.15;;;;;;;3.32;76.36;103153.97;6403210;23;20037;-67
2022/01/11 09:56:53;;;;;;;19.83;14.20;;;;;;;3.23;75.82;103157.84;6403922;23;20423;-69
2022/01/11 09:59:24;;;;;;;22.63;14.37;;;;;;;3.14;76.48;103149.63;6402101;23;20013;-66
2022/01/11 10:01:56;;;;;;;20.23;13.63;;;;;;;2.97;75.80;103153.81;6377901;23;20016;-68
2022/01/11 10:04:32;;;;;;;20.47;13.93;;;;;;;2.98;75.97;103159.84;6402598;23;20005;-72
2022/01/11 10:07:08;;;;;;;22.60;14.43;;;;;;;3.08;77.13;103154.41;6377097;23;20431;-67
2022/01/11 10:09:48;;;;;;;20.38;12.73;;;;;;;3.23;75.11;103159.53;6377188;23;20427;-70
2022/01/11 10:12:22;;;;;;;21.15;13.45;;;;;;;3.02;75.00;103164.38;6377107;23;20097;-73
2022/01/11 10:14:55;;;;;;;22.00;13.90;;;;;;;2.88;75.58;103161.91;6402750;23;20024;-67
2022/01/11 10:17:30;;;;;;;18.17;13.82;;;;;;;2.83;76.20;103165.00;6402965;23;20033;-67
2022/01/11 10:20:09;;;;;;;20.23;14.10;;;;;;;2.86;76.96;103170.34;6402749;23;20028;-67
2022/01/11 10:22:48;;;;;;;22.67;13.32;;;;;;;2.80;76.45;103165.75;6376453;23;20820;-74
2022/01/11 10:25:20;;;;;;;22.45;13.75;;;;;;;2.80;76.77;103159.69;6401187;23;20092;-67
2022/01/11 10:28:03;;;;;;;19.98;11.90;;;;;;;2.78;77.01;103161.28;6401428;23;20424;-68
2022/01/11 10:30:35;;;;;;;;;;;;;;;3.05;78.01;103161.97;6403377;23;20106;-67
2022/01/11 10:33:09;;;;;;;24.88;13.07;;;;;;;2.94;76.62;103153.63;6403131;23;20060;-67
2022/01/11 10:35:44;;;;;;;23.00;13.23;;;;;;;2.88;76.81;103159.34;6377679;23;20104;-70
2022/01/11 10:38:26;;;;;;;22.15;14.13;;;;;;;2.95;77.44;103154.50;6403514;23;20005;-67
2022/01/11 10:40:57;;;;;;;20.98;12.57;;;;;;;2.99;77.45;103156.47;6377722;23;20024;-74
2022/01/11 10:43:30;;;;;;;16.57;11.60;;;;;;;2.99;76.67;103156.47;6404193;23;20002;-68
2022/01/11 10:46:02;;;;;;;21.52;14.13;;;;;;;2.98;76.57;103162.41;6404109;23;20172;-74
2022/01/11 10:48:38;;;;;;;19.10;12.63;;;;;;;3.01;77.35;103153.19;6403566;23;20005;-68
2022/01/11 10:51:14;;;;;;;25.77;12.23;;;;;;;3.07;77.42;103156.09;6378481;23;20312;-66
2022/01/11 10:53:49;;;;;;;23.80;12.98;;;;;;;3.16;76.58;103157.44;6404948;23;20016;-69
2022/01/11 10:56:37;;;;;;;17.48;11.73;;;;;;;3.25;76.94;103168.22;6403970;23;20009;-67
2022/01/11 10:59:10;;;;;;;18.65;11.20;;;;;;;3.35;76.63;103169.63;6403986;23;20221;-67
2022/01/11 11:01:44;;;;;;;19.30;12.43;;;;;;;3.45;76.29;103169.34;6405272;23;20093;-67
2022/01/11 11:04:32;;;;;;;20.60;12.15;;;;;;;3.55;76.54;103170.75;6379418;23;20155;-66
2022/01/11 11:07:22;;;;;;;21.38;12.32;;;;;;;3.52;75.96;103160.25;6402784;23;20040;-68
2022/01/11 11:09:53;;;;;;;19.60;13.48;;;;;;;3.43;74.87;103158.94;6378008;23;20010;-66
2022/01/11 11:12:26;;;;;;;20.43;12.73;;;;;;;3.50;74.98;103165.31;6402085;23;20077;-68
2022/01/11 11:15:02;;;;;;;17.40;11.50;;;;;;;3.58;76.00;103170.91;6403452;23;20068;-67
2022/01/11 11:17:40;;;;;;;19.25;12.25;;;;;;;3.60;75.66;103170.16;6377009;23;20006;-68
2022/01/11 11:20:12;;;;;;;21.42;11.30;;;;;;;3.57;75.99;103157.09;6377336;23;20005;-73
2022/01/11 11:22:45;;;;;;;18.27;11.27;;;;;;;3.61;75.56;103168.50;6377057;23;20015;-67
2022/01/11 11:25:17;;;;;;;17.55;11.68;;;;;;;3.61;76.06;103173.66;6402914;23;20076;-68
2022/01/11 11:27:48;;;;;;;19.45;11.90;;;;;;;3.66;76.53;103172.22;6376364;23;20037;-67
2022/01/11 11:30:20;;;;;;;16.77;11.70;;;;;;;3.65;75.70;103163.59;6376999;23;19997;-68
2022/01/11 11:32:53;;;;;;;19.83;11.57;;;;;;;3.71;75.92;103163.00;6376869;23;20060;-67
2022/01/11 11:35:24;;;;;;;21.75;10.57;;;;;;;3.72;74.69;103169.97;6378493;23;20052;-69